Language selection

My Weather Profile Weather Topics  | 

West Coast Haida Gwaii - northern half: Past 24 Hour Conditions

 

West Dixon Entrance - 46205

10:00 PM PST 16 January 2021Buoy position: 54.17N 134.28W
Disclaimer

This table is a summary of hourly weather conditions for the past 24 hours.
Please note that these observations might not always be representative of weather conditions over their associated marine area.

Date / Time
(PST)
Wind(knots) Wave height(m) Wave period(s) Pressure(kPa) Air tempC) Water tempC)
16 January 2021
22:00 S 19 gust 23 4.3 12.0 100.8 8 8
21:00 S 16 gust 22 4.6 14.0 100.7 8 7
20:00 S 19 gust 23 4.9 11.0 100.6 8 7
19:00 S 19 gust 25 4.7 13.0 100.5 8 7
18:00 S 17 gust 23 4.7 11.0 100.5 8 7
17:00 S 17 gust 22 4.6 10.0 100.4 8 7
16:00 S 16 gust 19 4.7 11.0 100.4 8 7
15:00 S 19 gust 23 4.5 11.0 100.4 8 7
14:00 S 19 gust 23 5.1 10.0 100.3 8 7
13:00 S 19 gust 23 5.8 13.0 100.3 8 7
12:00 SSE 25 gust 31 6.6 11.0 100.3 8 7
11:00 SSE 33 gust 46 6.7 10.0 100.2 8 8
10:00 SE 37 gust 45 6.5 9.0 100.2 8 8
9:00 SE 41 gust 51 6.2 9.0 100.3 8 8
8:00 SE 39 N/A N/A 100.4 8 8
7:00 ESE 37 gust 49 5.2 12.0 100.6 8 8
6:00 SE 33 gust 43 4.5 13.0 100.8 8 8
5:00 SE 29 gust 37 4.5 12.0 101.1 8 8
4:00 SE 25 gust 33 4.4 14.0 101.3 8 8
3:00 SE 25 gust 31 4.4 14.0 101.4 8 8
2:00 SE 25 gust 29 4.3 14.0 101.5 8 8
1:00 SE 22 gust 27 4.7 14.0 101.6 8 8
0:00 SE 19 gust 23 5.3 14.0 101.8 8 8
15 January 2021
23:00 SE 19 gust 23 5.1 15.0 101.8 8 8
22:00 SSE 17 gust 22 6.0 14.0 101.9 8 8

Zoom-in to make a selection

Map of Pacific - North Coast marine weather areas Middle Nomad - 46004 South Nomad - 46036 Dixon Entrance Central - 46145 South Moresby - 46147 Nanakwa Shoal - 46181 North Hecate Strait - 46183 North Nomad - 46184 South Hecate Strait - 46185 West Sea Otter - 46204 West Dixon Entrance - 46205 East Dellwood - 46207 West Moresby - 46208 Sartine Island Cape St.James Kindakun Rocks Langara Island Masset Municipal Airport Rose Spit Sandspit Airport Bella Bella Airport Bella Coola Airport Bonilla Island Cathedral Point Cumshewa Island Grey Islet Holland Rock Lucy Islands Lightstation Prince Rupert Airport
Legend:
buoy Buoy
land station Land Station

Pacific - North Coast Area

Another Region

What we are doing

Features

Need to travel Alberta Highway 93?

Go prepared with Highway 93 forecasts. Highway regions are available in the Alberta text forecast bulletin between Lake Louise and Jasper. (Photo by: Natalie Anderson)

Date modified: